Time;durP1;ratioP1;P1;durP2;ratioP2;P2;SDS_P1;SDS_P2;PMS_P1;PMS_P2;Temp;Humidity;BMP_temperature;BMP_pressure;BME280_temperature;BME280_humidity;BME280_pressure;Samples;Min_cycle;Max_cycle;Signal;HPM_P1;HPM_P2
2021/05/16 00:00:07;;;;;;;1.70;1.60;;;;;;;;;;5042548;28;20188;-71
2021/05/16 00:02:34;;;;;;;0.83;0.83;;;;;;;;;;5045174;28;20274;-72
2021/05/16 00:05:00;;;;;;;0.00;0.00;;;;;;;;;;5038133;28;20295;-69
2021/05/16 00:07:27;;;;;;;3.67;1.57;;;;;;;;;;5042583;28;20612;-70
2021/05/16 00:09:55;;;;;;;10.47;4.07;;;;;;;;;;5036301;28;20175;-71
2021/05/16 00:12:22;;;;;;;0.20;0.20;;;;;;;;;;5034211;28;20363;-69
2021/05/16 00:14:48;;;;;;;1.13;0.50;;;;;;;;;;5040133;28;20266;-70
2021/05/16 00:17:15;;;;;;;0.00;0.00;;;;;;;;;;5044717;28;20218;-72
2021/05/16 00:19:42;;;;;;;2.20;0.80;;;;;;;;;;5039764;28;20210;-70
2021/05/16 00:22:09;;;;;;;1.53;1.50;;;;;;;;;;5038670;28;20186;-70
2021/05/16 00:24:38;;;;;;;0.33;0.33;;;;;;;;;;5037103;28;20186;-71
2021/05/16 00:27:04;;;;;;;1.63;0.53;;;;;;;;;;5042737;28;20200;-71
2021/05/16 00:29:33;;;;;;;3.53;1.63;;;;;;;;;;5037797;28;20208;-71
2021/05/16 00:32:00;;;;;;;1.30;1.30;;;;;;;;;;5042739;28;20183;-71
2021/05/16 00:34:26;;;;;;;3.63;0.30;;;;;;;;;;5035229;28;20187;-70
2021/05/16 00:36:54;;;;;;;13.83;1.67;;;;;;;;;;5036913;28;20253;-73
2021/05/16 00:39:21;;;;;;;2.77;0.83;;;;;;;;;;5040146;28;20180;-70
2021/05/16 00:41:47;;;;;;;0.27;0.27;;;;;;;;;;5035398;28;20372;-70
2021/05/16 00:44:16;;;;;;;0.20;0.20;;;;;;;;;;5036945;28;20236;-70
2021/05/16 00:46:42;;;;;;;0.00;0.00;;;;;;;;;;5033527;28;20184;-71
2021/05/16 00:49:11;;;;;;;0.00;0.00;;;;;;;;;;5037505;28;20556;-70
2021/05/16 00:51:38;;;;;;;0.70;0.70;;;;;;;;;;5036236;28;20187;-72
2021/05/16 00:54:06;;;;;;;1.13;1.07;;;;;;;;;;5036163;28;20595;-72
2021/05/16 00:56:33;;;;;;;0.00;0.00;;;;;;;;;;5041894;28;20180;-71
2021/05/16 00:59:00;;;;;;;2.77;2.63;;;;;;;;;;5032586;28;20199;-72
2021/05/16 01:01:27;;;;;;;0.60;0.20;;;;;;;;;;5040432;28;20212;-72
2021/05/16 01:03:54;;;;;;;0.77;0.60;;;;;;;;;;5032246;28;20848;-72
2021/05/16 01:06:24;;;;;;;4.33;1.10;;;;;;;;;;5038615;28;20261;-71
2021/05/16 01:08:56;;;;;;;0.00;0.00;;;;;;;;;;5038520;28;20470;-72
2021/05/16 01:11:27;;;;;;;1.90;1.87;;;;;;;;;;5038572;28;20194;-71
2021/05/16 01:13:57;;;;;;;0.00;0.00;;;;;;;;;;5037671;28;20191;-71
2021/05/16 01:16:23;;;;;;;0.50;0.50;;;;;;;;;;5040581;28;20231;-71
2021/05/16 01:18:51;;;;;;;0.30;0.23;;;;;;;;;;5035064;28;20457;-72
2021/05/16 01:21:18;;;;;;;2.07;0.67;;;;;;;;;;5038964;28;20833;-72
2021/05/16 01:23:48;;;;;;;1.90;0.27;;;;;;;;;;5036786;28;20758;-71
2021/05/16 01:26:15;;;;;;;0.03;0.03;;;;;;;;;;5038629;28;20519;-72
2021/05/16 01:28:45;;;;;;;0.00;0.00;;;;;;;;;;5033408;28;20211;-72
2021/05/16 01:31:12;;;;;;;12.23;2.00;;;;;;;;;;5033242;28;20267;-72
2021/05/16 01:33:39;;;;;;;4.07;2.23;;;;;;;;;;5036236;28;20188;-70
2021/05/16 01:36:07;;;;;;;0.00;0.00;;;;;;;;;;5035583;28;20176;-67
2021/05/16 01:38:35;;;;;;;1.50;1.40;;;;;;;;;;5035542;28;20201;-71
2021/05/16 01:41:02;;;;;;;0.00;0.00;;;;;;;;;;5046086;28;20257;-71
2021/05/16 01:43:32;;;;;;;0.00;0.00;;;;;;;;;;5039361;28;20187;-71
2021/05/16 01:45:59;;;;;;;0.13;0.10;;;;;;;;;;5042217;28;20189;-70
2021/05/16 01:48:27;;;;;;;0.27;0.27;;;;;;;;;;5038491;28;20211;-71
2021/05/16 01:50:53;;;;;;;2.00;0.40;;;;;;;;;;5037135;28;20184;-70
2021/05/16 01:53:21;;;;;;;0.00;0.00;;;;;;;;;;5039131;28;20199;-70
2021/05/16 01:55:48;;;;;;;7.83;6.80;;;;;;;;;;5037295;28;20180;-70
2021/05/16 01:58:16;;;;;;;0.00;0.00;;;;;;;;;;5036364;28;20820;-71
2021/05/16 02:00:44;;;;;;;0.40;0.40;;;;;;;;;;5037691;28;20200;-70
2021/05/16 02:03:11;;;;;;;0.47;0.20;;;;;;;;;;5035890;28;20294;-70
2021/05/16 02:05:39;;;;;;;3.80;3.50;;;;;;;;;;5065892;28;20278;-71
2021/05/16 02:08:06;;;;;;;1.90;1.30;;;;;;;;;;5036227;28;20239;-70
2021/05/16 02:10:33;;;;;;;1.30;0.10;;;;;;;;;;5036358;28;20273;-70
2021/05/16 02:13:00;;;;;;;2.20;1.53;;;;;;;;;;5038563;28;20176;-70
2021/05/16 02:15:26;;;;;;;1.20;0.50;;;;;;;;;;5037702;28;20187;-71
2021/05/16 02:17:55;;;;;;;0.20;0.20;;;;;;;;;;5036788;28;20234;-70
2021/05/16 02:20:22;;;;;;;0.00;0.00;;;;;;;;;;5033410;28;20702;-71
2021/05/16 02:22:49;;;;;;;0.43;0.33;;;;;;;;;;5036035;28;20191;-70
2021/05/16 02:25:15;;;;;;;0.93;0.90;;;;;;;;;;5035533;28;20210;-71
2021/05/16 02:27:42;;;;;;;0.00;0.00;;;;;;;;;;5038237;28;20208;-70
2021/05/16 02:30:09;;;;;;;1.23;1.23;;;;;;;;;;5039186;28;20186;-70
2021/05/16 02:32:37;;;;;;;11.40;3.97;;;;;;;;;;5039430;28;20176;-65
2021/05/16 02:35:04;;;;;;;0.00;0.00;;;;;;;;;;5034399;28;20277;-65
2021/05/16 02:37:32;;;;;;;0.00;0.00;;;;;;;;;;5037728;28;20180;-65
2021/05/16 02:40:01;;;;;;;0.00;0.00;;;;;;;;;;5035322;28;20639;-67
2021/05/16 02:42:28;;;;;;;0.00;0.00;;;;;;;;;;5046801;28;20190;-67
2021/05/16 02:44:54;;;;;;;0.87;0.53;;;;;;;;;;5038506;28;20277;-65
2021/05/16 02:47:21;;;;;;;0.00;0.00;;;;;;;;;;5039975;28;20172;-65
2021/05/16 02:49:49;;;;;;;0.00;0.00;;;;;;;;;;5037917;28;20257;-66
2021/05/16 02:52:16;;;;;;;1.20;1.13;;;;;;;;;;5038298;28;20191;-65
2021/05/16 02:54:43;;;;;;;1.00;0.20;;;;;;;;;;5038554;28;20175;-65
2021/05/16 02:57:10;;;;;;;0.00;0.00;;;;;;;;;;5038551;28;20809;-72
2021/05/16 02:59:37;;;;;;;4.83;4.50;;;;;;;;;;5038066;28;20188;-70
2021/05/16 03:02:04;;;;;;;0.97;0.63;;;;;;;;;;5034499;28;20259;-73
2021/05/16 03:04:30;;;;;;;0.53;0.53;;;;;;;;;;5031419;28;20180;-73
2021/05/16 03:06:57;;;;;;;0.73;0.73;;;;;;;;;;5041165;28;20253;-73
2021/05/16 03:09:26;;;;;;;1.60;0.87;;;;;;;;;;5040575;28;20212;-72
2021/05/16 03:11:53;;;;;;;0.30;0.30;;;;;;;;;;5040476;28;20213;-73
2021/05/16 03:14:19;;;;;;;1.20;1.17;;;;;;;;;;5041813;28;20179;-72
2021/05/16 03:16:46;;;;;;;0.70;0.60;;;;;;;;;;5035253;28;20183;-72
2021/05/16 03:19:12;;;;;;;4.53;2.00;;;;;;;;;;5034182;28;20175;-72
2021/05/16 03:21:39;;;;;;;8.33;0.10;;;;;;;;;;5036479;28;20191;-72
2021/05/16 03:24:06;;;;;;;1.43;0.43;;;;;;;;;;5039651;28;20211;-72
2021/05/16 03:26:32;;;;;;;0.00;0.00;;;;;;;;;;5033477;28;20222;-72
2021/05/16 03:28:59;;;;;;;0.47;0.47;;;;;;;;;;5031765;28;20208;-73
2021/05/16 03:31:25;;;;;;;0.83;0.77;;;;;;;;;;5035396;28;20266;-72
2021/05/16 03:33:52;;;;;;;0.33;0.33;;;;;;;;;;5038981;28;20180;-73
2021/05/16 03:36:18;;;;;;;0.20;0.20;;;;;;;;;;5042211;28;20198;-72
2021/05/16 03:38:45;;;;;;;0.03;0.03;;;;;;;;;;5034935;28;20187;-73
2021/05/16 03:41:12;;;;;;;0.00;0.00;;;;;;;;;;5038055;28;20199;-73
2021/05/16 03:43:39;;;;;;;0.00;0.00;;;;;;;;;;5037851;28;20670;-73
2021/05/16 03:46:06;;;;;;;2.17;1.57;;;;;;;;;;5037570;28;20187;-73
2021/05/16 03:48:32;;;;;;;0.00;0.00;;;;;;;;;;5032280;28;20346;-73
2021/05/16 03:50:59;;;;;;;44.17;11.23;;;;;;;;;;5029363;28;20628;-73
2021/05/16 03:53:26;;;;;;;2.43;1.13;;;;;;;;;;5028190;28;20794;-73
2021/05/16 03:55:52;;;;;;;4.00;1.97;;;;;;;;;;5030060;28;20175;-73
2021/05/16 03:58:19;;;;;;;32.00;4.03;;;;;;;;;;5032929;28;20199;-74
2021/05/16 04:00:45;;;;;;;0.00;0.00;;;;;;;;;;5032786;28;20184;-73
2021/05/16 04:03:12;;;;;;;1.50;1.40;;;;;;;;;;5032870;28;20874;-73
2021/05/16 04:05:38;;;;;;;2.33;1.90;;;;;;;;;;5033073;28;20180;-73
2021/05/16 04:08:05;;;;;;;0.00;0.00;;;;;;;;;;5034150;28;20235;-72
2021/05/16 04:10:32;;;;;;;5.73;2.33;;;;;;;;;;5036608;28;20180;-73
2021/05/16 04:12:58;;;;;;;0.20;0.20;;;;;;;;;;5037330;28;20188;-73
2021/05/16 04:15:25;;;;;;;0.07;0.07;;;;;;;;;;5033444;28;20298;-73
2021/05/16 04:17:52;;;;;;;2.87;1.13;;;;;;;;;;5032278;28;20194;-73
2021/05/16 04:20:19;;;;;;;2.60;1.93;;;;;;;;;;5034333;28;20183;-73
2021/05/16 04:22:45;;;;;;;2.67;0.83;;;;;;;;;;5039375;28;20321;-73
2021/05/16 04:25:12;;;;;;;10.03;1.60;;;;;;;;;;5037019;28;20184;-73
2021/05/16 04:27:39;;;;;;;1.00;0.97;;;;;;;;;;5036052;28;20200;-73
2021/05/16 04:30:06;;;;;;;25.37;0.63;;;;;;;;;;5038959;28;20180;-73
2021/05/16 04:32:32;;;;;;;4.50;1.60;;;;;;;;;;5033929;28;20188;-73
2021/05/16 04:34:59;;;;;;;1.60;1.60;;;;;;;;;;5041119;28;20188;-73
2021/05/16 04:37:26;;;;;;;0.13;0.13;;;;;;;;;;5034018;28;20302;-73
2021/05/16 04:39:52;;;;;;;3.27;1.73;;;;;;;;;;5035005;28;20182;-73
2021/05/16 04:42:19;;;;;;;8.00;0.37;;;;;;;;;;5036536;28;20196;-73
2021/05/16 04:44:46;;;;;;;0.03;0.03;;;;;;;;;;5037666;28;20180;-73
2021/05/16 04:47:13;;;;;;;1.83;1.80;;;;;;;;;;5033415;28;21104;-73
2021/05/16 04:49:39;;;;;;;30.57;5.47;;;;;;;;;;5034231;28;20212;-72
2021/05/16 04:52:06;;;;;;;0.00;0.00;;;;;;;;;;5033699;28;20183;-72
2021/05/16 04:54:32;;;;;;;0.97;0.97;;;;;;;;;;5032929;28;20184;-72
2021/05/16 04:56:59;;;;;;;0.00;0.00;;;;;;;;;;5036245;28;20184;-72
2021/05/16 04:59:26;;;;;;;2.63;0.83;;;;;;;;;;5043373;28;20183;-73
2021/05/16 05:01:53;;;;;;;9.07;5.20;;;;;;;;;;5038838;28;20180;-72
2021/05/16 05:04:19;;;;;;;0.00;0.00;;;;;;;;;;5037203;28;20257;-72
2021/05/16 05:06:46;;;;;;;0.00;0.00;;;;;;;;;;5032788;28;20183;-72
2021/05/16 05:09:12;;;;;;;26.93;2.40;;;;;;;;;;5036270;28;20219;-72
2021/05/16 05:11:39;;;;;;;0.97;0.53;;;;;;;;;;5034106;28;20187;-71
2021/05/16 05:14:06;;;;;;;2.03;1.93;;;;;;;;;;5027067;28;20207;-72
2021/05/16 05:16:32;;;;;;;0.00;0.00;;;;;;;;;;5031682;28;20176;-71
2021/05/16 05:18:59;;;;;;;0.10;0.10;;;;;;;;;;5028458;28;20695;-72
2021/05/16 05:21:25;;;;;;;0.43;0.43;;;;;;;;;;5030048;28;20191;-72
2021/05/16 05:23:52;;;;;;;0.83;0.63;;;;;;;;;;5031703;28;20268;-72
2021/05/16 05:26:18;;;;;;;4.40;1.00;;;;;;;;;;5031046;28;20693;-71
2021/05/16 05:28:45;;;;;;;0.37;0.37;;;;;;;;;;5033482;28;20810;-71
2021/05/16 05:31:11;;;;;;;0.67;0.67;;;;;;;;;;5031117;28;20190;-72
2021/05/16 05:33:38;;;;;;;2.53;2.43;;;;;;;;;;5030686;28;20179;-72
2021/05/16 05:36:05;;;;;;;3.07;0.37;;;;;;;;;;5033280;28;20249;-72
2021/05/16 05:38:31;;;;;;;0.97;0.93;;;;;;;;;;5038177;28;20719;-72
2021/05/16 05:40:58;;;;;;;0.00;0.00;;;;;;;;;;5037202;28;20287;-71
2021/05/16 05:43:24;;;;;;;21.50;1.07;;;;;;;;;;5037866;28;20202;-71
2021/05/16 05:45:51;;;;;;;0.00;0.00;;;;;;;;;;5032839;28;20974;-72
2021/05/16 05:48:17;;;;;;;1.63;1.60;;;;;;;;;;5038692;28;20204;-71
2021/05/16 05:50:44;;;;;;;9.20;3.13;;;;;;;;;;5033905;28;20252;-72
2021/05/16 05:53:10;;;;;;;3.40;2.23;;;;;;;;;;5039857;28;20195;-71
2021/05/16 05:55:37;;;;;;;4.03;2.67;;;;;;;;;;5041569;28;20176;-71
2021/05/16 05:58:03;;;;;;;0.67;0.67;;;;;;;;;;5040475;28;20211;-71
2021/05/16 06:00:30;;;;;;;3.30;1.13;;;;;;;;;;5040557;28;20289;-72
2021/05/16 06:03:01;;;;;;;1.23;1.10;;;;;;;;;;5040312;28;20227;-72
2021/05/16 06:05:29;;;;;;;0.23;0.23;;;;;;;;;;5041136;28;20635;-72
2021/05/16 06:07:55;;;;;;;0.40;0.40;;;;;;;;;;5039798;28;20313;-72
2021/05/16 06:10:23;;;;;;;4.13;1.40;;;;;;;;;;5032322;28;20184;-72
2021/05/16 06:12:50;;;;;;;0.73;0.73;;;;;;;;;;5042285;28;20206;-72
2021/05/16 06:15:16;;;;;;;0.77;0.77;;;;;;;;;;5038049;28;20939;-72
2021/05/16 06:17:43;;;;;;;4.40;0.60;;;;;;;;;;5039744;28;20594;-72
2021/05/16 06:20:10;;;;;;;0.93;0.50;;;;;;;;;;5040168;28;20192;-72
2021/05/16 06:22:36;;;;;;;0.40;0.40;;;;;;;;;;5035528;28;20340;-72
2021/05/16 06:25:03;;;;;;;0.13;0.13;;;;;;;;;;5040450;28;20187;-72
2021/05/16 06:27:30;;;;;;;0.00;0.00;;;;;;;;;;5040032;28;20204;-72
2021/05/16 06:29:56;;;;;;;0.57;0.57;;;;;;;;;;5040653;28;20190;-72
2021/05/16 06:32:23;;;;;;;0.97;0.70;;;;;;;;;;5039836;28;20179;-72
2021/05/16 06:34:49;;;;;;;2.23;1.30;;;;;;;;;;5040308;28;20191;-73
2021/05/16 06:37:16;;;;;;;3.60;0.83;;;;;;;;;;5041796;28;20180;-72
2021/05/16 06:39:42;;;;;;;0.30;0.30;;;;;;;;;;5041986;28;20700;-72
2021/05/16 06:42:09;;;;;;;4.23;2.00;;;;;;;;;;5038372;28;20179;-72
2021/05/16 06:44:36;;;;;;;0.10;0.10;;;;;;;;;;5041542;28;20190;-72
2021/05/16 06:47:02;;;;;;;3.93;1.67;;;;;;;;;;5040915;28;20180;-71
2021/05/16 06:49:29;;;;;;;2.50;0.80;;;;;;;;;;5040014;28;20203;-71
2021/05/16 06:51:55;;;;;;;0.13;0.13;;;;;;;;;;5041037;28;20735;-72
2021/05/16 06:54:22;;;;;;;1.80;1.00;;;;;;;;;;5040027;28;20176;-72
2021/05/16 06:56:50;;;;;;;0.10;0.10;;;;;;;;;;5043328;28;20187;-72
2021/05/16 06:59:16;;;;;;;0.93;0.93;;;;;;;;;;5036603;28;20219;-72
2021/05/16 07:01:43;;;;;;;0.40;0.40;;;;;;;;;;5042094;28;20362;-72
2021/05/16 07:04:11;;;;;;;2.93;2.67;;;;;;;;;;5038936;28;20184;-72
2021/05/16 13:09:42;;;;;;;2.23;0.87;;;;;;;;;;5107828;27;20577;-59
2021/05/16 13:12:11;;;;;;;0.23;0.23;;;;;;;;;;5099583;28;20177;-59
2021/05/16 13:14:39;;;;;;;1.03;0.77;;;;;;;;;;5109132;28;20187;-60
2021/05/16 13:17:18;;;;;;;16.50;2.13;;;;;;;;;;5105549;28;20208;-60
2021/05/16 13:19:54;;;;;;;8.40;2.43;;;;;;;;;;5098246;28;20612;-60
2021/05/16 13:22:37;;;;;;;9.47;5.70;;;;;;;;;;5093580;28;20177;-60
2021/05/16 13:25:09;;;;;;;15.37;3.83;;;;;;;;;;5094845;28;20237;-60
2021/05/16 13:27:36;;;;;;;8.83;2.97;;;;;;;;;;5106855;28;20212;-60
2021/05/16 13:30:06;;;;;;;3.53;2.13;;;;;;;;;;5098419;28;20181;-60
2021/05/16 13:32:34;;;;;;;11.73;8.67;;;;;;;;;;5106056;28;20202;-59
2021/05/16 13:35:02;;;;;;;3.57;1.10;;;;;;;;;;5104694;28;20176;-60
2021/05/16 13:37:28;;;;;;;3.77;2.97;;;;;;;;;;5106344;28;20556;-60
2021/05/16 13:39:56;;;;;;;14.13;1.97;;;;;;;;;;5102782;28;20193;-60
2021/05/16 13:42:22;;;;;;;3.63;0.93;;;;;;;;;;5086331;28;20174;-60
2021/05/16 13:44:50;;;;;;;5.73;1.70;;;;;;;;;;5089292;28;20216;-60
2021/05/16 13:47:17;;;;;;;7.23;2.40;;;;;;;;;;5082722;28;20186;-60
2021/05/16 13:49:44;;;;;;;6.07;2.30;;;;;;;;;;5101317;28;20209;-61
2021/05/16 13:52:11;;;;;;;5.23;3.10;;;;;;;;;;5097886;28;20542;-60
2021/05/16 13:54:39;;;;;;;2.27;1.03;;;;;;;;;;5105218;28;20280;-61
2021/05/16 13:57:05;;;;;;;5.60;2.33;;;;;;;;;;5100119;28;20641;-60
2021/05/16 13:59:32;;;;;;;6.23;2.23;;;;;;;;;;5098418;28;20201;-60
2021/05/16 14:01:59;;;;;;;14.97;2.13;;;;;;;;;;5093340;28;20181;-60
2021/05/16 14:04:27;;;;;;;4.80;1.23;;;;;;;;;;5108308;28;20199;-61
2021/05/16 14:06:56;;;;;;;15.13;2.60;;;;;;;;;;5105346;28;20516;-60
2021/05/16 14:09:26;;;;;;;6.37;3.40;;;;;;;;;;5101497;28;20237;-61
2021/05/16 14:11:53;;;;;;;15.40;3.40;;;;;;;;;;5102919;28;20192;-60
2021/05/16 14:14:20;;;;;;;8.93;1.73;;;;;;;;;;5098577;28;20185;-61
2021/05/16 14:16:47;;;;;;;9.80;2.70;;;;;;;;;;5105152;28;20549;-60
2021/05/16 14:19:15;;;;;;;6.23;1.73;;;;;;;;;;5099551;28;20243;-61
2021/05/16 14:21:43;;;;;;;19.97;2.47;;;;;;;;;;5082318;28;20191;-60
2021/05/16 14:24:11;;;;;;;1.53;1.43;;;;;;;;;;5087072;28;20189;-61
2021/05/16 14:26:39;;;;;;;9.60;3.53;;;;;;;;;;5082536;28;20277;-61
2021/05/16 14:29:05;;;;;;;2.23;1.50;;;;;;;;;;5091835;28;20201;-61
2021/05/16 14:31:35;;;;;;;15.53;1.97;;;;;;;;;;5080534;28;20912;-61
2021/05/16 14:34:04;;;;;;;0.77;0.23;;;;;;;;;;5088593;28;20184;-61
2021/05/16 14:36:34;;;;;;;0.77;0.77;;;;;;;;;;5084370;28;20183;-61
2021/05/16 14:39:02;;;;;;;12.17;4.60;;;;;;;;;;5099198;28;20201;-61
2021/05/16 14:41:29;;;;;;;1.80;1.70;;;;;;;;;;5104024;28;20180;-60
2021/05/16 14:43:55;;;;;;;6.80;2.77;;;;;;;;;;5085006;28;20185;-61
2021/05/16 14:46:27;;;;;;;2.83;2.20;;;;;;;;;;5072648;28;20234;-61
2021/05/16 14:48:54;;;;;;;10.20;1.10;;;;;;;;;;5083743;28;20248;-61
2021/05/16 14:51:31;;;;;;;19.80;10.90;;;;;;;;;;5083592;28;20197;-61
2021/05/16 14:53:58;;;;;;;2.47;1.03;;;;;;;;;;5091939;28;20171;-61
2021/05/16 14:56:26;;;;;;;13.00;3.77;;;;;;;;;;5091207;28;20161;-60
2021/05/16 14:58:54;;;;;;;2.60;1.50;;;;;;;;;;5092333;28;20515;-61
2021/05/16 15:01:20;;;;;;;5.03;2.40;;;;;;;;;;5072022;28;20314;-60
2021/05/16 15:03:49;;;;;;;8.17;2.80;;;;;;;;;;5072096;28;20178;-60
2021/05/16 15:06:16;;;;;;;2.90;0.77;;;;;;;;;;5070998;28;20174;-61
2021/05/16 15:08:43;;;;;;;16.17;3.87;;;;;;;;;;5071133;28;20238;-60
2021/05/16 15:11:09;;;;;;;8.80;2.33;;;;;;;;;;5085438;28;20186;-62
2021/05/16 15:13:36;;;;;;;10.30;3.07;;;;;;;;;;5073859;28;20192;-61
2021/05/16 15:16:03;;;;;;;12.87;4.83;;;;;;;;;;5092656;28;20173;-60
2021/05/16 15:18:32;;;;;;;17.97;2.83;;;;;;;;;;5085010;28;20196;-61
2021/05/16 15:20:58;;;;;;;8.50;4.03;;;;;;;;;;5071464;28;20264;-61
2021/05/16 15:23:25;;;;;;;9.03;2.67;;;;;;;;;;5111024;28;20227;-61
2021/05/16 15:25:52;;;;;;;1.30;1.20;;;;;;;;;;5098342;28;20198;-60
2021/05/16 15:28:18;;;;;;;11.63;3.20;;;;;;;;;;5091329;28;20235;-61
2021/05/16 15:30:45;;;;;;;19.93;8.07;;;;;;;;;;5076584;28;20582;-61
2021/05/16 15:33:12;;;;;;;4.43;1.80;;;;;;;;;;5083818;28;20192;-60
2021/05/16 15:35:40;;;;;;;1.90;1.00;;;;;;;;;;5091623;28;20187;-61
2021/05/16 15:38:07;;;;;;;24.20;4.03;;;;;;;;;;5079142;28;20269;-61
2021/05/16 15:40:36;;;;;;;8.13;2.20;;;;;;;;;;5090927;28;20755;-61
2021/05/16 15:43:09;;;;;;;4.67;1.97;;;;;;;;;;5091216;28;20197;-61
2021/05/16 15:45:36;;;;;;;9.83;2.23;;;;;;;;;;5091923;28;20184;-61
2021/05/16 15:48:03;;;;;;;3.60;1.80;;;;;;;;;;5084551;28;20232;-61
2021/05/16 15:50:32;;;;;;;2.83;1.67;;;;;;;;;;5084337;28;20224;-61
2021/05/16 15:53:05;;;;;;;9.40;0.93;;;;;;;;;;5090879;28;20190;-61
2021/05/16 15:55:35;;;;;;;7.40;2.73;;;;;;;;;;5070877;28;20160;-60
2021/05/16 15:58:02;;;;;;;1.53;0.60;;;;;;;;;;5085445;28;20708;-61
2021/05/16 16:00:30;;;;;;;7.63;1.30;;;;;;;;;;5090834;28;20209;-61
2021/05/16 16:02:57;;;;;;;2.57;1.93;;;;;;;;;;5090872;28;20196;-61
2021/05/16 16:05:26;;;;;;;0.70;0.57;;;;;;;;;;5090837;28;20224;-61
2021/05/16 16:07:53;;;;;;;6.43;2.13;;;;;;;;;;5090111;28;20240;-60
2021/05/16 16:10:24;;;;;;;6.47;1.33;;;;;;;;;;5102835;28;20626;-61
2021/05/16 16:12:51;;;;;;;11.93;4.67;;;;;;;;;;5077100;28;20190;-60
2021/05/16 16:15:18;;;;;;;2.90;2.40;;;;;;;;;;5091134;28;20162;-60
2021/05/16 16:17:44;;;;;;;4.23;1.80;;;;;;;;;;5091538;28;20162;-60
2021/05/16 16:20:15;;;;;;;3.50;1.60;;;;;;;;;;5082756;28;20255;-60
2021/05/16 16:22:42;;;;;;;0.13;0.13;;;;;;;;;;5072446;28;20842;-61
2021/05/16 16:25:09;;;;;;;7.23;1.70;;;;;;;;;;5090838;28;20192;-60
2021/05/16 16:27:37;;;;;;;4.67;3.13;;;;;;;;;;5090121;28;20186;-61
2021/05/16 16:30:04;;;;;;;2.40;1.60;;;;;;;;;;5080627;28;20231;-60
2021/05/16 16:32:37;;;;;;;6.47;1.53;;;;;;;;;;5076183;28;20278;-60
2021/05/16 16:35:06;;;;;;;0.67;0.67;;;;;;;;;;5104044;27;20207;-60
2021/05/16 16:37:32;;;;;;;2.37;1.13;;;;;;;;;;5093707;28;20889;-61
2021/05/16 16:40:09;;;;;;;8.07;2.23;;;;;;;;;;5090566;28;20178;-61
2021/05/16 16:42:36;;;;;;;8.83;2.10;;;;;;;;;;5090639;28;20914;-61
2021/05/16 16:45:03;;;;;;;5.37;2.10;;;;;;;;;;5091722;28;20937;-61
2021/05/16 16:47:32;;;;;;;4.53;2.83;;;;;;;;;;5090435;28;20259;-61
2021/05/16 16:49:58;;;;;;;15.13;4.10;;;;;;;;;;5090407;28;20570;-61
2021/05/16 16:52:27;;;;;;;17.60;4.10;;;;;;;;;;5073492;28;20226;-61
2021/05/16 16:54:54;;;;;;;3.27;1.33;;;;;;;;;;5084005;28;20178;-61
2021/05/16 16:57:20;;;;;;;10.80;3.10;;;;;;;;;;5090625;28;20209;-61
2021/05/16 16:59:48;;;;;;;14.60;4.07;;;;;;;;;;5079969;28;20240;-60
2021/05/16 17:02:14;;;;;;;16.97;3.40;;;;;;;;;;5069967;28;20162;-59
2021/05/16 17:04:41;;;;;;;2.53;2.03;;;;;;;;;;5073176;28;20268;-59
2021/05/16 17:07:12;;;;;;;3.30;1.90;;;;;;;;;;5090189;28;20267;-59
2021/05/16 17:09:40;;;;;;;8.10;2.10;;;;;;;;;;5089961;28;20264;-60
2021/05/16 17:12:07;;;;;;;12.23;3.33;;;;;;;;;;5089554;28;20182;-60
2021/05/16 17:14:33;;;;;;;8.10;1.00;;;;;;;;;;5089599;28;20197;-60
2021/05/16 17:17:00;;;;;;;11.50;2.30;;;;;;;;;;5080622;28;20187;-59
2021/05/16 17:19:28;;;;;;;4.50;2.43;;;;;;;;;;5084009;28;20189;-60
2021/05/16 17:21:57;;;;;;;7.10;2.00;;;;;;;;;;5088917;28;20271;-60
2021/05/16 17:24:24;;;;;;;8.13;4.07;;;;;;;;;;5103141;28;20189;-60
2021/05/16 17:26:54;;;;;;;1.70;0.83;;;;;;;;;;5087969;28;20284;-62
2021/05/16 17:29:23;;;;;;;12.63;2.77;;;;;;;;;;5083370;28;20206;-62
2021/05/16 17:31:58;;;;;;;10.00;1.07;;;;;;;;;;5080176;28;20189;-61
2021/05/16 17:34:25;;;;;;;6.07;0.63;;;;;;;;;;5079592;28;20181;-62
2021/05/16 17:36:53;;;;;;;12.30;2.27;;;;;;;;;;5080550;28;21031;-62
2021/05/16 17:39:22;;;;;;;6.80;1.70;;;;;;;;;;5083631;28;20185;-62
2021/05/16 17:41:49;;;;;;;5.53;5.23;;;;;;;;;;5087659;28;20538;-61
2021/05/16 17:44:17;;;;;;;5.60;1.53;;;;;;;;;;5084649;28;20193;-61
2021/05/16 17:46:47;;;;;;;10.20;3.17;;;;;;;;;;5093102;28;20190;-61
2021/05/16 17:49:14;;;;;;;4.10;1.40;;;;;;;;;;5080334;28;20695;-63
2021/05/16 17:51:42;;;;;;;16.23;3.93;;;;;;;;;;5075883;28;20186;-64
2021/05/16 17:54:09;;;;;;;3.17;2.77;;;;;;;;;;5072572;28;20194;-63
2021/05/16 17:56:37;;;;;;;6.43;2.33;;;;;;;;;;5078677;28;20853;-65
2021/05/16 17:59:05;;;;;;;3.30;0.47;;;;;;;;;;5079050;28;20301;-65
2021/05/16 18:01:34;;;;;;;4.33;1.97;;;;;;;;;;5080788;28;20560;-65
2021/05/16 18:04:01;;;;;;;9.13;3.17;;;;;;;;;;5078818;28;20281;-63
2021/05/16 18:06:28;;;;;;;6.10;1.53;;;;;;;;;;5077454;28;20200;-64
2021/05/16 18:08:56;;;;;;;7.03;2.07;;;;;;;;;;5076321;28;21053;-64
2021/05/16 18:11:25;;;;;;;0.00;0.00;;;;;;;;;;5083941;28;20185;-64
2021/05/16 18:13:53;;;;;;;15.53;2.80;;;;;;;;;;5076315;28;20204;-64
2021/05/16 18:16:21;;;;;;;1.50;0.93;;;;;;;;;;5084665;28;20177;-64
2021/05/16 18:18:49;;;;;;;0.30;0.30;;;;;;;;;;5081334;28;20752;-64
2021/05/16 18:21:16;;;;;;;4.70;1.17;;;;;;;;;;5075120;28;20217;-64
2021/05/16 18:23:44;;;;;;;3.10;1.13;;;;;;;;;;5078213;28;20773;-64
2021/05/16 18:26:11;;;;;;;6.67;1.90;;;;;;;;;;5083789;28;20233;-64
2021/05/16 18:28:38;;;;;;;2.87;2.13;;;;;;;;;;5079997;28;20215;-64
2021/05/16 18:31:06;;;;;;;1.27;0.87;;;;;;;;;;5083144;28;20541;-64
2021/05/16 18:33:34;;;;;;;4.40;2.30;;;;;;;;;;5080221;28;20190;-64
2021/05/16 18:36:02;;;;;;;0.10;0.10;;;;;;;;;;5079271;28;20174;-65
2021/05/16 18:38:30;;;;;;;0.60;0.60;;;;;;;;;;5085558;28;20371;-64
2021/05/16 18:40:58;;;;;;;0.43;0.43;;;;;;;;;;5083836;28;20178;-64
2021/05/16 18:43:25;;;;;;;14.33;1.13;;;;;;;;;;5088038;28;20273;-64
2021/05/16 18:45:53;;;;;;;5.20;0.47;;;;;;;;;;5083654;28;20248;-64
2021/05/16 18:48:24;;;;;;;9.23;1.87;;;;;;;;;;5081819;28;20197;-65
2021/05/16 18:50:51;;;;;;;0.80;0.57;;;;;;;;;;5078133;28;21030;-64
2021/05/16 18:53:19;;;;;;;1.07;0.93;;;;;;;;;;5080922;28;20246;-65
2021/05/16 18:55:47;;;;;;;8.33;2.13;;;;;;;;;;5077664;28;20182;-64
2021/05/16 18:58:14;;;;;;;0.20;0.17;;;;;;;;;;5072898;28;20185;-64
2021/05/16 19:00:42;;;;;;;1.03;0.73;;;;;;;;;;5078147;28;20717;-65
2021/05/16 19:03:12;;;;;;;8.93;2.00;;;;;;;;;;5092577;27;20263;-65
2021/05/16 19:05:39;;;;;;;5.63;1.73;;;;;;;;;;5086038;28;20189;-65
2021/05/16 19:08:07;;;;;;;4.07;0.50;;;;;;;;;;5078869;28;20224;-65
2021/05/16 19:10:34;;;;;;;2.83;0.97;;;;;;;;;;5080375;28;20632;-65
2021/05/16 19:13:01;;;;;;;12.73;2.43;;;;;;;;;;5077446;28;20303;-64
2021/05/16 19:15:29;;;;;;;9.17;4.07;;;;;;;;;;5074563;28;20631;-64
2021/05/16 19:17:56;;;;;;;2.10;2.00;;;;;;;;;;5076897;28;20186;-64
2021/05/16 19:20:23;;;;;;;7.53;2.77;;;;;;;;;;5074605;28;20189;-64
2021/05/16 19:22:51;;;;;;;10.63;1.43;;;;;;;;;;5077552;28;20232;-65
2021/05/16 19:25:18;;;;;;;12.50;9.07;;;;;;;;;;5078147;28;20184;-64
2021/05/16 19:27:45;;;;;;;39.50;3.80;;;;;;;;;;5077174;28;20206;-64
2021/05/16 19:30:13;;;;;;;0.60;0.60;;;;;;;;;;5079947;28;20189;-64
2021/05/16 19:32:40;;;;;;;6.17;3.13;;;;;;;;;;5082516;28;20190;-65
2021/05/16 19:35:08;;;;;;;4.57;1.37;;;;;;;;;;5077377;28;20217;-64
2021/05/16 19:37:36;;;;;;;3.33;1.80;;;;;;;;;;5079567;28;20182;-64
2021/05/16 19:40:04;;;;;;;2.43;2.23;;;;;;;;;;5075731;28;20917;-64
2021/05/16 19:42:31;;;;;;;2.57;0.57;;;;;;;;;;5076027;28;20239;-64
2021/05/16 19:44:58;;;;;;;10.37;0.93;;;;;;;;;;5071112;28;20665;-64
2021/05/16 19:47:29;;;;;;;2.47;1.13;;;;;;;;;;5072960;28;20193;-65
2021/05/16 19:50:01;;;;;;;0.67;0.63;;;;;;;;;;5068882;28;20191;-65
2021/05/16 19:52:28;;;;;;;9.53;1.50;;;;;;;;;;5076289;28;20593;-65
2021/05/16 19:54:55;;;;;;;8.57;2.07;;;;;;;;;;5079770;28;20892;-65
2021/05/16 19:57:23;;;;;;;0.93;0.10;;;;;;;;;;5075261;28;21080;-65
2021/05/16 19:59:50;;;;;;;5.57;2.50;;;;;;;;;;5068559;28;20301;-65
2021/05/16 20:02:18;;;;;;;0.00;0.00;;;;;;;;;;5070280;28;20316;-65
2021/05/16 20:04:46;;;;;;;9.13;1.97;;;;;;;;;;5082005;28;20189;-65
2021/05/16 20:07:13;;;;;;;2.40;1.40;;;;;;;;;;5055203;28;20189;-65
2021/05/16 20:09:40;;;;;;;0.80;0.73;;;;;;;;;;5077778;28;20242;-65
2021/05/16 20:12:07;;;;;;;0.00;0.00;;;;;;;;;;5077077;28;20199;-65
2021/05/16 20:14:34;;;;;;;6.07;2.10;;;;;;;;;;5077684;28;20185;-65
2021/05/16 20:17:01;;;;;;;14.40;1.97;;;;;;;;;;5075104;28;20215;-65
2021/05/16 20:19:28;;;;;;;4.13;1.13;;;;;;;;;;5074474;28;21196;-65
2021/05/16 20:21:56;;;;;;;14.80;2.83;;;;;;;;;;5078889;28;20178;-65
2021/05/16 20:24:23;;;;;;;2.90;1.03;;;;;;;;;;5076592;28;20179;-66
2021/05/16 20:26:50;;;;;;;0.00;0.00;;;;;;;;;;5077922;28;20671;-65
2021/05/16 20:29:17;;;;;;;4.77;2.10;;;;;;;;;;5076369;28;20847;-65
2021/05/16 20:31:47;;;;;;;4.93;2.60;;;;;;;;;;5070811;28;20294;-65
2021/05/16 20:34:17;;;;;;;3.43;0.90;;;;;;;;;;5071408;28;20181;-65
2021/05/16 20:36:44;;;;;;;1.23;1.07;;;;;;;;;;5079928;28;20200;-64
2021/05/16 20:39:12;;;;;;;3.70;2.83;;;;;;;;;;5071625;28;20207;-64
2021/05/16 20:41:40;;;;;;;3.20;1.27;;;;;;;;;;5073176;28;20620;-64
2021/05/16 20:44:08;;;;;;;3.70;1.33;;;;;;;;;;5082404;28;20754;-64